sensor_id;sensor_type;location;lat;lon;timestamp;P1;durP1;ratioP1;P2;durP2;ratioP2
75928;SDS011;64606;44.062;2.986;2023-02-02T00:01:46;14.55;;;7.07;;
75928;SDS011;64606;44.062;2.986;2023-02-02T00:04:17;21.50;;;10.43;;
75928;SDS011;64606;44.062;2.986;2023-02-02T00:06:43;17.92;;;7.65;;
75928;SDS011;64606;44.062;2.986;2023-02-02T00:09:10;14.77;;;7.72;;
75928;SDS011;64606;44.062;2.986;2023-02-02T00:11:37;21.08;;;8.43;;
75928;SDS011;64606;44.062;2.986;2023-02-02T00:14:03;15.43;;;7.22;;
75928;SDS011;64606;44.062;2.986;2023-02-02T00:19:00;10.07;;;5.82;;
75928;SDS011;64606;44.062;2.986;2023-02-02T00:21:26;10.27;;;4.93;;
75928;SDS011;64606;44.062;2.986;2023-02-02T00:23:52;8.27;;;4.57;;
75928;SDS011;64606;44.062;2.986;2023-02-02T00:26:19;12.60;;;6.05;;
75928;SDS011;64606;44.062;2.986;2023-02-02T00:28:45;11.30;;;5.13;;
75928;SDS011;64606;44.062;2.986;2023-02-02T00:31:11;11.35;;;5.07;;
75928;SDS011;64606;44.062;2.986;2023-02-02T00:33:37;25.85;;;8.85;;
75928;SDS011;64606;44.062;2.986;2023-02-02T00:36:04;20.70;;;9.15;;
75928;SDS011;64606;44.062;2.986;2023-02-02T00:38:30;15.27;;;6.65;;
75928;SDS011;64606;44.062;2.986;2023-02-02T00:40:56;12.60;;;5.70;;
75928;SDS011;64606;44.062;2.986;2023-02-02T00:43:22;20.80;;;8.35;;
75928;SDS011;64606;44.062;2.986;2023-02-02T00:45:48;15.20;;;7.55;;
75928;SDS011;64606;44.062;2.986;2023-02-02T00:48:15;13.73;;;6.72;;
75928;SDS011;64606;44.062;2.986;2023-02-02T00:50:41;13.98;;;7.30;;
75928;SDS011;64606;44.062;2.986;2023-02-02T00:53:07;13.35;;;6.40;;
75928;SDS011;64606;44.062;2.986;2023-02-02T00:55:33;10.02;;;5.03;;
75928;SDS011;64606;44.062;2.986;2023-02-02T00:57:59;12.93;;;6.43;;
75928;SDS011;64606;44.062;2.986;2023-02-02T01:00:25;14.88;;;7.15;;
75928;SDS011;64606;44.062;2.986;2023-02-02T01:02:52;14.65;;;7.00;;
75928;SDS011;64606;44.062;2.986;2023-02-02T01:05:19;15.70;;;6.82;;
75928;SDS011;64606;44.062;2.986;2023-02-02T01:07:46;12.77;;;7.03;;
75928;SDS011;64606;44.062;2.986;2023-02-02T01:10:14;13.80;;;7.05;;
75928;SDS011;64606;44.062;2.986;2023-02-02T01:12:41;16.55;;;7.55;;
75928;SDS011;64606;44.062;2.986;2023-02-02T01:15:07;13.52;;;6.20;;
75928;SDS011;64606;44.062;2.986;2023-02-02T01:17:34;25.98;;;10.93;;
75928;SDS011;64606;44.062;2.986;2023-02-02T01:20:00;17.95;;;7.72;;
75928;SDS011;64606;44.062;2.986;2023-02-02T01:22:26;14.05;;;6.45;;
75928;SDS011;64606;44.062;2.986;2023-02-02T01:24:52;12.02;;;5.60;;
75928;SDS011;64606;44.062;2.986;2023-02-02T01:27:18;14.52;;;6.40;;
75928;SDS011;64606;44.062;2.986;2023-02-02T01:29:44;13.85;;;6.25;;
75928;SDS011;64606;44.062;2.986;2023-02-02T01:32:10;15.48;;;6.10;;
75928;SDS011;64606;44.062;2.986;2023-02-02T01:34:37;13.98;;;6.65;;
75928;SDS011;64606;44.062;2.986;2023-02-02T01:37:07;13.20;;;6.00;;
75928;SDS011;64606;44.062;2.986;2023-02-02T01:39:34;9.15;;;5.00;;
75928;SDS011;64606;44.062;2.986;2023-02-02T01:42:00;14.73;;;6.40;;
75928;SDS011;64606;44.062;2.986;2023-02-02T01:47:11;14.25;;;7.05;;
75928;SDS011;64606;44.062;2.986;2023-02-02T01:49:38;13.18;;;6.13;;
75928;SDS011;64606;44.062;2.986;2023-02-02T01:52:04;13.13;;;5.97;;
75928;SDS011;64606;44.062;2.986;2023-02-02T01:54:32;13.63;;;5.60;;
75928;SDS011;64606;44.062;2.986;2023-02-02T01:57:00;8.30;;;4.68;;
75928;SDS011;64606;44.062;2.986;2023-02-02T01:59:27;11.95;;;5.70;;
75928;SDS011;64606;44.062;2.986;2023-02-02T02:01:54;9.57;;;5.00;;
75928;SDS011;64606;44.062;2.986;2023-02-02T02:04:21;10.02;;;5.22;;
75928;SDS011;64606;44.062;2.986;2023-02-02T02:06:48;13.38;;;6.28;;
75928;SDS011;64606;44.062;2.986;2023-02-02T02:09:16;11.63;;;5.25;;
75928;SDS011;64606;44.062;2.986;2023-02-02T02:11:43;9.60;;;4.72;;
75928;SDS011;64606;44.062;2.986;2023-02-02T02:14:09;10.15;;;5.55;;
75928;SDS011;64606;44.062;2.986;2023-02-02T02:19:40;14.13;;;5.75;;
75928;SDS011;64606;44.062;2.986;2023-02-02T02:22:34;9.40;;;5.07;;
75928;SDS011;64606;44.062;2.986;2023-02-02T02:25:31;13.48;;;6.60;;
75928;SDS011;64606;44.062;2.986;2023-02-02T02:39:24;10.68;;;4.65;;
75928;SDS011;64606;44.062;2.986;2023-02-02T02:41:55;9.75;;;4.97;;
75928;SDS011;64606;44.062;2.986;2023-02-02T02:44:22;10.18;;;4.43;;
75928;SDS011;64606;44.062;2.986;2023-02-02T02:46:49;11.60;;;4.85;;
75928;SDS011;64606;44.062;2.986;2023-02-02T02:49:15;9.77;;;5.38;;
75928;SDS011;64606;44.062;2.986;2023-02-02T02:51:43;9.43;;;5.32;;
75928;SDS011;64606;44.062;2.986;2023-02-02T02:54:14;8.48;;;4.72;;
75928;SDS011;64606;44.062;2.986;2023-02-02T02:56:48;9.70;;;4.88;;
75928;SDS011;64606;44.062;2.986;2023-02-02T02:59:24;12.93;;;4.60;;
75928;SDS011;64606;44.062;2.986;2023-02-02T03:01:58;9.23;;;4.68;;
75928;SDS011;64606;44.062;2.986;2023-02-02T03:07:03;11.13;;;5.15;;
75928;SDS011;64606;44.062;2.986;2023-02-02T03:09:33;8.73;;;4.30;;
75928;SDS011;64606;44.062;2.986;2023-02-02T03:12:01;9.38;;;4.95;;
75928;SDS011;64606;44.062;2.986;2023-02-02T03:14:27;9.73;;;5.38;;
75928;SDS011;64606;44.062;2.986;2023-02-02T03:16:53;9.77;;;5.45;;
75928;SDS011;64606;44.062;2.986;2023-02-02T03:19:19;9.27;;;4.60;;
75928;SDS011;64606;44.062;2.986;2023-02-02T03:21:45;10.43;;;4.65;;
75928;SDS011;64606;44.062;2.986;2023-02-02T03:24:11;9.32;;;4.78;;
75928;SDS011;64606;44.062;2.986;2023-02-02T03:26:38;8.55;;;4.38;;
75928;SDS011;64606;44.062;2.986;2023-02-02T03:29:04;7.32;;;3.60;;
75928;SDS011;64606;44.062;2.986;2023-02-02T03:31:31;10.45;;;4.20;;
75928;SDS011;64606;44.062;2.986;2023-02-02T03:33:57;8.32;;;4.18;;
75928;SDS011;64606;44.062;2.986;2023-02-02T03:36:23;9.90;;;4.63;;
75928;SDS011;64606;44.062;2.986;2023-02-02T03:38:49;8.85;;;4.53;;
75928;SDS011;64606;44.062;2.986;2023-02-02T03:41:15;8.90;;;4.38;;
75928;SDS011;64606;44.062;2.986;2023-02-02T03:43:41;7.35;;;3.97;;
75928;SDS011;64606;44.062;2.986;2023-02-02T03:46:07;10.23;;;4.53;;
75928;SDS011;64606;44.062;2.986;2023-02-02T03:48:37;9.20;;;4.18;;
75928;SDS011;64606;44.062;2.986;2023-02-02T03:51:04;9.05;;;3.95;;
75928;SDS011;64606;44.062;2.986;2023-02-02T03:53:30;6.78;;;3.90;;
75928;SDS011;64606;44.062;2.986;2023-02-02T03:55:57;7.88;;;3.63;;
75928;SDS011;64606;44.062;2.986;2023-02-02T03:58:23;10.88;;;4.40;;
75928;SDS011;64606;44.062;2.986;2023-02-02T04:00:49;23.13;;;10.50;;
75928;SDS011;64606;44.062;2.986;2023-02-02T04:03:15;12.88;;;6.07;;
75928;SDS011;64606;44.062;2.986;2023-02-02T04:05:41;9.65;;;4.60;;
75928;SDS011;64606;44.062;2.986;2023-02-02T04:08:07;7.03;;;4.20;;
75928;SDS011;64606;44.062;2.986;2023-02-02T04:10:33;10.57;;;4.20;;
75928;SDS011;64606;44.062;2.986;2023-02-02T04:12:59;8.00;;;3.83;;
75928;SDS011;64606;44.062;2.986;2023-02-02T04:15:26;6.75;;;3.88;;
75928;SDS011;64606;44.062;2.986;2023-02-02T04:17:52;7.20;;;3.80;;
75928;SDS011;64606;44.062;2.986;2023-02-02T04:20:18;7.00;;;3.80;;
75928;SDS011;64606;44.062;2.986;2023-02-02T04:22:44;7.13;;;3.67;;
75928;SDS011;64606;44.062;2.986;2023-02-02T04:25:10;8.48;;;4.00;;
75928;SDS011;64606;44.062;2.986;2023-02-02T04:27:36;11.57;;;4.40;;
75928;SDS011;64606;44.062;2.986;2023-02-02T04:30:02;8.13;;;4.20;;
75928;SDS011;64606;44.062;2.986;2023-02-02T04:32:29;9.18;;;4.53;;
75928;SDS011;64606;44.062;2.986;2023-02-02T04:34:56;10.15;;;4.75;;
75928;SDS011;64606;44.062;2.986;2023-02-02T04:37:22;10.02;;;4.60;;
75928;SDS011;64606;44.062;2.986;2023-02-02T04:39:48;9.20;;;4.25;;
75928;SDS011;64606;44.062;2.986;2023-02-02T04:42:14;7.13;;;3.15;;
75928;SDS011;64606;44.062;2.986;2023-02-02T04:44:40;8.63;;;4.00;;
75928;SDS011;64606;44.062;2.986;2023-02-02T04:47:09;12.18;;;4.60;;
75928;SDS011;64606;44.062;2.986;2023-02-02T04:49:35;11.02;;;5.10;;
75928;SDS011;64606;44.062;2.986;2023-02-02T04:52:02;10.90;;;4.95;;
75928;SDS011;64606;44.062;2.986;2023-02-02T04:54:28;10.55;;;4.13;;
75928;SDS011;64606;44.062;2.986;2023-02-02T04:56:54;6.65;;;3.53;;
75928;SDS011;64606;44.062;2.986;2023-02-02T04:59:20;9.65;;;4.05;;
75928;SDS011;64606;44.062;2.986;2023-02-02T05:01:46;7.75;;;3.38;;
75928;SDS011;64606;44.062;2.986;2023-02-02T05:04:12;7.82;;;3.58;;
75928;SDS011;64606;44.062;2.986;2023-02-02T05:06:38;9.20;;;4.95;;
75928;SDS011;64606;44.062;2.986;2023-02-02T05:09:04;10.60;;;5.25;;
75928;SDS011;64606;44.062;2.986;2023-02-02T05:11:30;7.93;;;4.20;;
75928;SDS011;64606;44.062;2.986;2023-02-02T05:13:56;5.97;;;3.45;;
75928;SDS011;64606;44.062;2.986;2023-02-02T05:16:23;10.43;;;3.67;;
75928;SDS011;64606;44.062;2.986;2023-02-02T05:18:50;9.45;;;3.72;;
75928;SDS011;64606;44.062;2.986;2023-02-02T05:21:16;8.45;;;4.30;;
75928;SDS011;64606;44.062;2.986;2023-02-02T05:23:43;9.93;;;4.22;;
75928;SDS011;64606;44.062;2.986;2023-02-02T05:26:11;8.75;;;4.03;;
75928;SDS011;64606;44.062;2.986;2023-02-02T05:28:40;8.50;;;3.90;;
75928;SDS011;64606;44.062;2.986;2023-02-02T05:31:07;7.38;;;3.38;;
75928;SDS011;64606;44.062;2.986;2023-02-02T05:33:33;9.65;;;3.45;;
75928;SDS011;64606;44.062;2.986;2023-02-02T05:35:59;9.00;;;4.05;;
75928;SDS011;64606;44.062;2.986;2023-02-02T05:38:25;19.92;;;6.82;;
75928;SDS011;64606;44.062;2.986;2023-02-02T05:40:51;13.70;;;5.05;;
75928;SDS011;64606;44.062;2.986;2023-02-02T05:43:17;13.50;;;5.22;;
75928;SDS011;64606;44.062;2.986;2023-02-02T05:45:44;16.27;;;8.07;;
75928;SDS011;64606;44.062;2.986;2023-02-02T05:48:13;13.27;;;6.30;;
75928;SDS011;64606;44.062;2.986;2023-02-02T05:50:40;9.65;;;5.32;;
75928;SDS011;64606;44.062;2.986;2023-02-02T05:53:07;22.42;;;9.50;;
75928;SDS011;64606;44.062;2.986;2023-02-02T05:55:33;14.88;;;6.95;;
75928;SDS011;64606;44.062;2.986;2023-02-02T05:57:59;12.20;;;4.60;;
75928;SDS011;64606;44.062;2.986;2023-02-02T06:00:25;13.90;;;6.25;;
75928;SDS011;64606;44.062;2.986;2023-02-02T06:02:51;14.68;;;7.22;;
75928;SDS011;64606;44.062;2.986;2023-02-02T06:05:17;15.15;;;6.88;;
75928;SDS011;64606;44.062;2.986;2023-02-02T06:07:43;15.07;;;7.85;;
75928;SDS011;64606;44.062;2.986;2023-02-02T06:10:10;10.77;;;6.47;;
75928;SDS011;64606;44.062;2.986;2023-02-02T06:12:36;15.48;;;8.27;;
75928;SDS011;64606;44.062;2.986;2023-02-02T06:15:02;66.65;;;20.73;;
75928;SDS011;64606;44.062;2.986;2023-02-02T06:17:29;61.60;;;19.98;;
75928;SDS011;64606;44.062;2.986;2023-02-02T06:19:55;47.05;;;15.75;;
75928;SDS011;64606;44.062;2.986;2023-02-02T06:22:21;56.70;;;21.23;;
75928;SDS011;64606;44.062;2.986;2023-02-02T06:24:47;74.65;;;31.50;;
75928;SDS011;64606;44.062;2.986;2023-02-02T06:27:13;25.45;;;13.32;;
75928;SDS011;64606;44.062;2.986;2023-02-02T06:29:39;14.07;;;7.15;;
75928;SDS011;64606;44.062;2.986;2023-02-02T06:32:05;16.25;;;8.35;;
75928;SDS011;64606;44.062;2.986;2023-02-02T06:34:31;16.48;;;6.68;;
75928;SDS011;64606;44.062;2.986;2023-02-02T06:36:58;20.15;;;10.35;;
75928;SDS011;64606;44.062;2.986;2023-02-02T06:39:24;12.40;;;5.22;;
75928;SDS011;64606;44.062;2.986;2023-02-02T06:41:50;14.02;;;4.40;;
75928;SDS011;64606;44.062;2.986;2023-02-02T06:44:16;15.27;;;6.20;;
75928;SDS011;64606;44.062;2.986;2023-02-02T06:46:43;10.77;;;5.13;;
75928;SDS011;64606;44.062;2.986;2023-02-02T06:49:09;14.45;;;5.40;;
75928;SDS011;64606;44.062;2.986;2023-02-02T06:51:35;16.42;;;8.48;;
75928;SDS011;64606;44.062;2.986;2023-02-02T06:54:02;16.98;;;8.10;;
75928;SDS011;64606;44.062;2.986;2023-02-02T06:56:28;21.67;;;9.73;;
75928;SDS011;64606;44.062;2.986;2023-02-02T06:58:54;19.85;;;9.88;;
75928;SDS011;64606;44.062;2.986;2023-02-02T07:01:20;11.55;;;5.28;;
75928;SDS011;64606;44.062;2.986;2023-02-02T07:03:47;8.77;;;4.50;;
75928;SDS011;64606;44.062;2.986;2023-02-02T07:06:21;9.68;;;4.85;;
75928;SDS011;64606;44.062;2.986;2023-02-02T07:08:47;15.43;;;6.25;;
75928;SDS011;64606;44.062;2.986;2023-02-02T07:11:14;15.35;;;6.78;;
75928;SDS011;64606;44.062;2.986;2023-02-02T07:13:41;20.35;;;6.80;;
75928;SDS011;64606;44.062;2.986;2023-02-02T07:16:07;16.15;;;7.15;;
75928;SDS011;64606;44.062;2.986;2023-02-02T07:18:37;15.45;;;7.00;;
75928;SDS011;64606;44.062;2.986;2023-02-02T07:21:04;16.33;;;7.05;;
75928;SDS011;64606;44.062;2.986;2023-02-02T07:23:31;20.83;;;9.43;;
75928;SDS011;64606;44.062;2.986;2023-02-02T07:26:04;44.05;;;17.02;;
75928;SDS011;64606;44.062;2.986;2023-02-02T07:28:31;51.65;;;20.55;;
75928;SDS011;64606;44.062;2.986;2023-02-02T07:30:57;22.25;;;9.48;;
75928;SDS011;64606;44.062;2.986;2023-02-02T07:33:23;26.55;;;10.20;;
75928;SDS011;64606;44.062;2.986;2023-02-02T07:35:49;11.30;;;5.53;;
75928;SDS011;64606;44.062;2.986;2023-02-02T07:38:15;14.05;;;4.72;;
75928;SDS011;64606;44.062;2.986;2023-02-02T07:40:42;11.05;;;4.50;;
75928;SDS011;64606;44.062;2.986;2023-02-02T07:43:08;16.13;;;6.88;;
75928;SDS011;64606;44.062;2.986;2023-02-02T07:45:34;10.90;;;5.45;;
75928;SDS011;64606;44.062;2.986;2023-02-02T07:48:01;28.35;;;15.38;;
75928;SDS011;64606;44.062;2.986;2023-02-02T07:50:27;14.68;;;5.95;;
75928;SDS011;64606;44.062;2.986;2023-02-02T07:52:54;8.50;;;4.97;;
75928;SDS011;64606;44.062;2.986;2023-02-02T07:55:20;11.85;;;5.90;;
75928;SDS011;64606;44.062;2.986;2023-02-02T07:57:46;10.88;;;5.68;;
75928;SDS011;64606;44.062;2.986;2023-02-02T08:00:13;16.88;;;8.88;;
75928;SDS011;64606;44.062;2.986;2023-02-02T08:02:39;15.23;;;7.68;;
75928;SDS011;64606;44.062;2.986;2023-02-02T08:05:05;16.27;;;7.90;;
75928;SDS011;64606;44.062;2.986;2023-02-02T08:07:34;15.10;;;6.32;;
75928;SDS011;64606;44.062;2.986;2023-02-02T08:10:00;12.70;;;5.05;;
75928;SDS011;64606;44.062;2.986;2023-02-02T08:12:26;17.60;;;7.80;;
75928;SDS011;64606;44.062;2.986;2023-02-02T08:14:53;16.05;;;5.85;;
75928;SDS011;64606;44.062;2.986;2023-02-02T08:17:19;12.57;;;5.00;;
75928;SDS011;64606;44.062;2.986;2023-02-02T08:19:47;9.77;;;5.03;;
75928;SDS011;64606;44.062;2.986;2023-02-02T08:22:13;13.15;;;5.45;;
75928;SDS011;64606;44.062;2.986;2023-02-02T08:24:39;12.35;;;5.47;;
75928;SDS011;64606;44.062;2.986;2023-02-02T08:27:07;15.10;;;8.18;;
75928;SDS011;64606;44.062;2.986;2023-02-02T08:29:34;21.90;;;10.75;;
75928;SDS011;64606;44.062;2.986;2023-02-02T08:32:00;31.55;;;11.73;;
75928;SDS011;64606;44.062;2.986;2023-02-02T08:34:26;26.98;;;11.00;;
75928;SDS011;64606;44.062;2.986;2023-02-02T08:36:53;22.50;;;9.88;;
75928;SDS011;64606;44.062;2.986;2023-02-02T08:39:19;25.02;;;11.00;;
75928;SDS011;64606;44.062;2.986;2023-02-02T08:41:45;26.52;;;10.20;;
75928;SDS011;64606;44.062;2.986;2023-02-02T08:44:12;41.10;;;17.50;;
75928;SDS011;64606;44.062;2.986;2023-02-02T08:46:39;37.45;;;15.80;;
75928;SDS011;64606;44.062;2.986;2023-02-02T08:49:05;32.05;;;13.48;;
75928;SDS011;64606;44.062;2.986;2023-02-02T08:51:31;29.38;;;13.20;;
75928;SDS011;64606;44.062;2.986;2023-02-02T08:53:57;28.77;;;12.77;;
75928;SDS011;64606;44.062;2.986;2023-02-02T08:56:23;22.35;;;10.55;;
75928;SDS011;64606;44.062;2.986;2023-02-02T08:58:53;26.02;;;11.07;;
75928;SDS011;64606;44.062;2.986;2023-02-02T09:01:20;20.30;;;8.73;;
75928;SDS011;64606;44.062;2.986;2023-02-02T09:03:47;20.67;;;8.68;;
75928;SDS011;64606;44.062;2.986;2023-02-02T09:06:17;17.98;;;9.27;;
75928;SDS011;64606;44.062;2.986;2023-02-02T09:08:43;19.00;;;9.63;;
75928;SDS011;64606;44.062;2.986;2023-02-02T09:11:14;17.15;;;8.98;;
75928;SDS011;64606;44.062;2.986;2023-02-02T09:13:41;18.50;;;8.50;;
75928;SDS011;64606;44.062;2.986;2023-02-02T09:16:10;24.30;;;9.73;;
75928;SDS011;64606;44.062;2.986;2023-02-02T09:18:36;19.33;;;9.32;;
75928;SDS011;64606;44.062;2.986;2023-02-02T09:21:04;22.15;;;8.93;;
75928;SDS011;64606;44.062;2.986;2023-02-02T09:23:31;20.52;;;8.75;;
75928;SDS011;64606;44.062;2.986;2023-02-02T09:26:07;19.08;;;8.35;;
75928;SDS011;64606;44.062;2.986;2023-02-02T09:28:34;18.42;;;8.50;;
75928;SDS011;64606;44.062;2.986;2023-02-02T09:31:00;17.23;;;8.25;;
75928;SDS011;64606;44.062;2.986;2023-02-02T09:33:27;16.38;;;8.80;;
75928;SDS011;64606;44.062;2.986;2023-02-02T09:35:53;17.00;;;9.07;;
75928;SDS011;64606;44.062;2.986;2023-02-02T09:38:19;15.95;;;8.80;;
75928;SDS011;64606;44.062;2.986;2023-02-02T09:40:45;22.17;;;9.98;;
75928;SDS011;64606;44.062;2.986;2023-02-02T09:43:34;25.33;;;10.38;;
75928;SDS011;64606;44.062;2.986;2023-02-02T09:46:11;18.08;;;9.15;;
75928;SDS011;64606;44.062;2.986;2023-02-02T09:48:56;21.45;;;9.35;;
75928;SDS011;64606;44.062;2.986;2023-02-02T09:51:25;23.77;;;10.13;;
75928;SDS011;64606;44.062;2.986;2023-02-02T09:53:55;22.98;;;11.10;;
75928;SDS011;64606;44.062;2.986;2023-02-02T09:56:36;22.13;;;9.85;;
75928;SDS011;64606;44.062;2.986;2023-02-02T09:59:03;20.00;;;9.20;;
75928;SDS011;64606;44.062;2.986;2023-02-02T10:01:30;17.88;;;9.45;;
75928;SDS011;64606;44.062;2.986;2023-02-02T10:08:54;25.92;;;10.45;;
75928;SDS011;64606;44.062;2.986;2023-02-02T10:14:01;21.02;;;9.88;;
75928;SDS011;64606;44.062;2.986;2023-02-02T10:16:30;21.75;;;9.32;;
75928;SDS011;64606;44.062;2.986;2023-02-02T10:23:49;38.22;;;10.45;;
75928;SDS011;64606;44.062;2.986;2023-02-02T10:33:51;15.68;;;5.80;;
75928;SDS011;64606;44.062;2.986;2023-02-02T10:36:23;14.57;;;5.45;;
75928;SDS011;64606;44.062;2.986;2023-02-02T10:39:08;16.25;;;5.28;;
75928;SDS011;64606;44.062;2.986;2023-02-02T10:41:58;16.48;;;4.90;;
75928;SDS011;64606;44.062;2.986;2023-02-02T10:44:34;18.77;;;5.57;;
75928;SDS011;64606;44.062;2.986;2023-02-02T10:47:02;11.20;;;4.30;;
75928;SDS011;64606;44.062;2.986;2023-02-02T10:49:31;16.17;;;4.00;;
75928;SDS011;64606;44.062;2.986;2023-02-02T10:52:03;19.42;;;4.80;;
75928;SDS011;64606;44.062;2.986;2023-02-02T10:57:02;10.88;;;3.30;;
75928;SDS011;64606;44.062;2.986;2023-02-02T10:59:34;9.20;;;3.00;;
75928;SDS011;64606;44.062;2.986;2023-02-02T11:02:07;10.73;;;3.17;;
75928;SDS011;64606;44.062;2.986;2023-02-02T11:04:34;14.00;;;3.58;;
75928;SDS011;64606;44.062;2.986;2023-02-02T11:07:19;9.77;;;3.27;;
75928;SDS011;64606;44.062;2.986;2023-02-02T11:09:45;13.68;;;3.75;;
75928;SDS011;64606;44.062;2.986;2023-02-02T11:14:42;9.38;;;2.70;;
75928;SDS011;64606;44.062;2.986;2023-02-02T11:17:16;12.23;;;3.00;;
75928;SDS011;64606;44.062;2.986;2023-02-02T11:19:43;9.15;;;3.08;;
75928;SDS011;64606;44.062;2.986;2023-02-02T11:22:22;16.88;;;4.43;;
75928;SDS011;64606;44.062;2.986;2023-02-02T11:24:50;13.07;;;5.00;;
75928;SDS011;64606;44.062;2.986;2023-02-02T11:30:26;8.38;;;2.47;;
75928;SDS011;64606;44.062;2.986;2023-02-02T11:32:32;13.40;;;4.28;;
75928;SDS011;64606;44.062;2.986;2023-02-02T11:40:37;9.52;;;2.38;;
75928;SDS011;64606;44.062;2.986;2023-02-02T11:43:05;10.02;;;1.60;;
75928;SDS011;64606;44.062;2.986;2023-02-02T11:48:06;7.43;;;1.85;;
75928;SDS011;64606;44.062;2.986;2023-02-02T11:50:33;12.00;;;2.83;;
75928;SDS011;64606;44.062;2.986;2023-02-02T11:53:00;7.80;;;1.50;;
75928;SDS011;64606;44.062;2.986;2023-02-02T11:55:27;7.35;;;1.90;;
75928;SDS011;64606;44.062;2.986;2023-02-02T12:00:56;7.90;;;2.13;;
75928;SDS011;64606;44.062;2.986;2023-02-02T12:03:36;8.93;;;2.30;;
75928;SDS011;64606;44.062;2.986;2023-02-02T12:06:22;5.55;;;1.60;;
75928;SDS011;64606;44.062;2.986;2023-02-02T12:08:49;12.77;;;2.40;;
75928;SDS011;64606;44.062;2.986;2023-02-02T12:16:35;5.40;;;1.40;;
75928;SDS011;64606;44.062;2.986;2023-02-02T12:19:24;8.90;;;2.40;;
75928;SDS011;64606;44.062;2.986;2023-02-02T12:24:26;13.32;;;4.78;;
75928;SDS011;64606;44.062;2.986;2023-02-02T12:26:57;5.60;;;1.48;;
75928;SDS011;64606;44.062;2.986;2023-02-02T12:29:33;6.65;;;2.30;;
75928;SDS011;64606;44.062;2.986;2023-02-02T12:45:43;7.45;;;2.25;;
75928;SDS011;64606;44.062;2.986;2023-02-02T12:50:58;9.27;;;2.63;;
75928;SDS011;64606;44.062;2.986;2023-02-02T12:58:23;9.90;;;3.42;;
75928;SDS011;64606;44.062;2.986;2023-02-02T13:03:29;14.80;;;5.65;;
75928;SDS011;64606;44.062;2.986;2023-02-02T13:06:14;6.85;;;2.13;;
75928;SDS011;64606;44.062;2.986;2023-02-02T13:08:52;10.80;;;2.00;;
75928;SDS011;64606;44.062;2.986;2023-02-02T13:11:30;7.70;;;2.17;;
75928;SDS011;64606;44.062;2.986;2023-02-02T13:14:08;8.27;;;1.80;;
75928;SDS011;64606;44.062;2.986;2023-02-02T13:16:37;7.28;;;1.40;;
75928;SDS011;64606;44.062;2.986;2023-02-02T13:19:09;28.17;;;12.23;;
75928;SDS011;64606;44.062;2.986;2023-02-02T13:21:36;10.55;;;4.47;;
75928;SDS011;64606;44.062;2.986;2023-02-02T13:24:03;10.05;;;2.80;;
75928;SDS011;64606;44.062;2.986;2023-02-02T13:26:31;15.00;;;5.45;;
75928;SDS011;64606;44.062;2.986;2023-02-02T13:29:06;11.25;;;4.70;;
75928;SDS011;64606;44.062;2.986;2023-02-02T13:31:47;9.95;;;3.30;;
75928;SDS011;64606;44.062;2.986;2023-02-02T13:36:55;13.60;;;5.30;;
75928;SDS011;64606;44.062;2.986;2023-02-02T13:39:26;12.25;;;4.28;;
75928;SDS011;64606;44.062;2.986;2023-02-02T13:41:54;13.07;;;5.25;;
75928;SDS011;64606;44.062;2.986;2023-02-02T13:44:23;8.15;;;2.20;;
75928;SDS011;64606;44.062;2.986;2023-02-02T13:46:51;7.20;;;2.53;;
75928;SDS011;64606;44.062;2.986;2023-02-02T13:49:32;8.50;;;1.25;;
75928;SDS011;64606;44.062;2.986;2023-02-02T13:52:10;9.05;;;1.63;;
75928;SDS011;64606;44.062;2.986;2023-02-02T13:54:53;5.80;;;1.90;;
75928;SDS011;64606;44.062;2.986;2023-02-02T13:57:36;7.93;;;2.70;;
75928;SDS011;64606;44.062;2.986;2023-02-02T14:05:06;7.15;;;1.48;;
75928;SDS011;64606;44.062;2.986;2023-02-02T14:07:42;6.10;;;2.03;;
75928;SDS011;64606;44.062;2.986;2023-02-02T14:10:21;8.73;;;2.00;;
75928;SDS011;64606;44.062;2.986;2023-02-02T14:12:48;8.30;;;2.50;;
75928;SDS011;64606;44.062;2.986;2023-02-02T14:15:14;7.13;;;1.98;;
75928;SDS011;64606;44.062;2.986;2023-02-02T14:20:37;12.82;;;3.88;;
75928;SDS011;64606;44.062;2.986;2023-02-02T14:22:53;8.40;;;2.38;;
75928;SDS011;64606;44.062;2.986;2023-02-02T14:27:58;7.57;;;1.75;;
75928;SDS011;64606;44.062;2.986;2023-02-02T14:30:26;8.55;;;1.88;;
75928;SDS011;64606;44.062;2.986;2023-02-02T14:32:52;8.57;;;1.52;;
75928;SDS011;64606;44.062;2.986;2023-02-02T14:37:56;8.15;;;1.70;;
75928;SDS011;64606;44.062;2.986;2023-02-02T14:48:34;6.80;;;2.25;;
75928;SDS011;64606;44.062;2.986;2023-02-02T14:51:03;10.70;;;2.13;;
75928;SDS011;64606;44.062;2.986;2023-02-02T14:53:36;7.10;;;1.73;;
75928;SDS011;64606;44.062;2.986;2023-02-02T15:03:53;6.63;;;2.20;;
75928;SDS011;64606;44.062;2.986;2023-02-02T15:06:35;5.55;;;2.17;;
75928;SDS011;64606;44.062;2.986;2023-02-02T15:14:37;9.38;;;3.47;;
75928;SDS011;64606;44.062;2.986;2023-02-02T15:20:03;5.13;;;2.15;;
75928;SDS011;64606;44.062;2.986;2023-02-02T15:22:33;7.95;;;2.75;;
75928;SDS011;64606;44.062;2.986;2023-02-02T15:25:03;14.07;;;4.28;;
75928;SDS011;64606;44.062;2.986;2023-02-02T15:27:31;9.75;;;2.75;;
75928;SDS011;64606;44.062;2.986;2023-02-02T15:30:02;8.50;;;2.40;;
75928;SDS011;64606;44.062;2.986;2023-02-02T15:32:29;10.30;;;3.53;;
75928;SDS011;64606;44.062;2.986;2023-02-02T15:35:02;8.52;;;2.70;;
75928;SDS011;64606;44.062;2.986;2023-02-02T15:37:30;9.32;;;2.45;;
75928;SDS011;64606;44.062;2.986;2023-02-02T15:40:04;13.20;;;4.70;;
75928;SDS011;64606;44.062;2.986;2023-02-02T15:42:36;15.63;;;5.47;;
75928;SDS011;64606;44.062;2.986;2023-02-02T15:45:41;6.70;;;2.83;;
75928;SDS011;64606;44.062;2.986;2023-02-02T15:50:50;11.57;;;3.72;;
75928;SDS011;64606;44.062;2.986;2023-02-02T15:53:23;15.98;;;5.40;;
75928;SDS011;64606;44.062;2.986;2023-02-02T15:55:50;11.40;;;3.80;;
75928;SDS011;64606;44.062;2.986;2023-02-02T15:58:32;10.60;;;4.57;;
75928;SDS011;64606;44.062;2.986;2023-02-02T16:01:03;12.73;;;4.70;;
75928;SDS011;64606;44.062;2.986;2023-02-02T16:03:32;12.93;;;3.55;;
75928;SDS011;64606;44.062;2.986;2023-02-02T16:05:59;13.55;;;4.28;;
75928;SDS011;64606;44.062;2.986;2023-02-02T16:08:26;12.90;;;3.25;;
75928;SDS011;64606;44.062;2.986;2023-02-02T16:11:03;9.43;;;3.60;;
75928;SDS011;64606;44.062;2.986;2023-02-02T16:13:30;9.25;;;3.08;;
75928;SDS011;64606;44.062;2.986;2023-02-02T16:15:58;9.45;;;2.67;;
75928;SDS011;64606;44.062;2.986;2023-02-02T16:18:25;8.23;;;2.70;;
75928;SDS011;64606;44.062;2.986;2023-02-02T16:20:52;9.48;;;3.67;;
75928;SDS011;64606;44.062;2.986;2023-02-02T16:23:21;9.52;;;3.17;;
75928;SDS011;64606;44.062;2.986;2023-02-02T16:25:49;6.82;;;2.28;;
75928;SDS011;64606;44.062;2.986;2023-02-02T16:28:16;8.77;;;1.70;;
75928;SDS011;64606;44.062;2.986;2023-02-02T16:30:43;7.60;;;2.45;;
75928;SDS011;64606;44.062;2.986;2023-02-02T16:35:54;10.15;;;3.17;;
75928;SDS011;64606;44.062;2.986;2023-02-02T16:38:38;10.93;;;2.85;;
75928;SDS011;64606;44.062;2.986;2023-02-02T16:43:34;12.10;;;3.67;;
75928;SDS011;64606;44.062;2.986;2023-02-02T16:46:05;11.88;;;4.85;;
75928;SDS011;64606;44.062;2.986;2023-02-02T16:51:03;12.93;;;4.90;;
75928;SDS011;64606;44.062;2.986;2023-02-02T16:53:30;11.52;;;5.38;;
75928;SDS011;64606;44.062;2.986;2023-02-02T16:55:56;17.48;;;9.07;;
75928;SDS011;64606;44.062;2.986;2023-02-02T16:58:22;19.98;;;9.65;;
75928;SDS011;64606;44.062;2.986;2023-02-02T17:01:11;21.83;;;10.82;;
75928;SDS011;64606;44.062;2.986;2023-02-02T17:03:37;16.40;;;6.93;;
75928;SDS011;64606;44.062;2.986;2023-02-02T17:06:04;14.20;;;4.20;;
75928;SDS011;64606;44.062;2.986;2023-02-02T17:08:32;11.30;;;4.43;;
75928;SDS011;64606;44.062;2.986;2023-02-02T17:11:17;12.43;;;5.30;;